Time;durP1;ratioP1;P1;durP2;ratioP2;P2;SDS_P1;SDS_P2;PMS_P1;PMS_P2;Temp;Humidity;BMP_temperature;BMP_pressure;BME280_temperature;BME280_humidity;BME280_pressure;Samples;Min_cycle;Max_cycle;Signal;HPM_P1;HPM_P2
2021/01/25 00:01:21;;;;;;;7.80;4.60;;;1.90;70.80;;;;;;5049075;28;20203;-70
2021/01/25 00:03:47;;;;;;;13.80;5.07;;;1.90;71.30;;;;;;5049923;28;20934;-71
2021/01/25 00:06:13;;;;;;;8.57;4.83;;;1.90;71.30;;;;;;5049775;28;20209;-73
2021/01/25 00:08:39;;;;;;;7.15;4.88;;;1.90;71.70;;;;;;5050445;28;20219;-71
2021/01/25 00:11:05;;;;;;;7.97;4.90;;;1.80;71.80;;;;;;5050468;28;20200;-71
2021/01/25 00:13:31;;;;;;;12.27;5.57;;;1.90;72.10;;;;;;5049489;28;20267;-73
2021/01/25 00:15:57;;;;;;;13.00;5.82;;;1.90;72.40;;;;;;5049591;28;20546;-72
2021/01/25 00:18:22;;;;;;;10.03;5.50;;;1.80;72.70;;;;;;5050213;28;20263;-71
2021/01/25 00:20:48;;;;;;;12.00;5.37;;;1.80;73.60;;;;;;5048770;28;20240;-71
2021/01/25 00:23:14;;;;;;;9.23;4.90;;;1.70;74.00;;;;;;5049724;28;20192;-71
2021/01/25 00:25:40;;;;;;;9.73;5.20;;;1.70;74.00;;;;;;5047985;28;20390;-72
2021/01/25 00:28:05;;;;;;;12.57;5.40;;;1.60;73.90;;;;;;5050206;28;20219;-71
2021/01/25 00:30:31;;;;;;;11.70;5.80;;;1.50;73.90;;;;;;5049730;28;20423;-73
2021/01/25 00:32:57;;;;;;;8.43;4.27;;;1.50;73.90;;;;;;5049424;28;20201;-70
2021/01/25 00:35:23;;;;;;;8.73;4.63;;;1.50;73.60;;;;;;5049129;28;20457;-70
2021/01/25 00:37:49;;;;;;;8.07;4.50;;;1.40;73.60;;;;;;5049625;28;20204;-71
2021/01/25 00:40:15;;;;;;;8.25;4.40;;;1.40;73.60;;;;;;5049852;28;20550;-70
2021/01/25 00:42:41;;;;;;;9.63;5.07;;;1.30;74.20;;;;;;5048519;28;20557;-70
2021/01/25 00:45:07;;;;;;;7.67;4.60;;;1.30;74.50;;;;;;5056809;28;20203;-70
2021/01/25 00:47:39;;;;;;;7.32;4.05;;;1.20;74.80;;;;;;5075950;28;20532;-71
2021/01/25 00:50:06;;;;;;;10.03;4.60;;;1.30;74.80;;;;;;5069687;28;20213;-71
2021/01/25 00:52:32;;;;;;;8.00;4.53;;;1.40;74.60;;;;;;5073988;28;20179;-71
2021/01/25 00:54:58;;;;;;;8.80;5.00;;;1.40;74.60;;;;;;5068636;28;20180;-72
2021/01/25 00:57:24;;;;;;;8.93;4.78;;;1.30;74.90;;;;;;5067572;28;20239;-72
2021/01/25 00:59:50;;;;;;;5.77;4.30;;;1.40;74.90;;;;;;5069321;28;20768;-72
2021/01/25 01:02:16;;;;;;;6.17;3.93;;;1.40;74.60;;;;;;5054312;28;20429;-71
2021/01/25 01:04:41;;;;;;;6.87;3.97;;;1.50;73.90;;;;;;5070106;28;20605;-70
2021/01/25 01:07:07;;;;;;;7.83;4.57;;;1.40;73.50;;;;;;5069406;28;20235;-71
2021/01/25 01:09:33;;;;;;;8.13;5.47;;;1.50;73.70;;;;;;5069012;28;20229;-72
2021/01/25 01:11:58;;;;;;;8.00;4.13;;;1.60;73.70;;;;;;5050389;28;20244;-74
2021/01/25 01:14:24;;;;;;;9.33;5.93;;;1.60;72.90;;;;;;5065764;28;20698;-70
2021/01/25 01:16:51;;;;;;;9.20;5.20;;;1.40;73.30;;;;;;5067588;28;20290;-71
2021/01/25 01:19:16;;;;;;;7.35;4.63;;;1.30;74.30;;;;;;5069038;28;20426;-71
2021/01/25 01:21:42;;;;;;;11.30;5.40;;;1.30;74.90;;;;;;5067150;28;20187;-71
2021/01/25 01:24:08;;;;;;;14.13;4.20;;;1.30;74.90;;;;;;5067678;28;20191;-71
2021/01/25 01:26:34;;;;;;;8.57;4.82;;;1.30;74.90;;;;;;5069331;28;20223;-72
2021/01/25 01:29:00;;;;;;;11.53;4.87;;;1.30;74.30;;;;;;5067178;28;20230;-72
2021/01/25 01:31:25;;;;;;;10.17;5.43;;;1.30;75.10;;;;;;5068174;28;20180;-71
2021/01/25 01:33:51;;;;;;;7.13;4.70;;;1.40;74.90;;;;;;5067071;28;20204;-73
2021/01/25 01:36:17;;;;;;;8.43;4.50;;;1.40;75.20;;;;;;5065807;28;20226;-71
2021/01/25 01:38:42;;;;;;;6.27;4.00;;;1.40;75.20;;;;;;5051335;28;20198;-72
2021/01/25 01:41:08;;;;;;;8.70;4.70;;;1.40;74.90;;;;;;5072967;28;20251;-71
2021/01/25 01:43:34;;;;;;;7.47;4.30;;;1.30;75.10;;;;;;5067182;28;20187;-72
2021/01/25 01:45:59;;;;;;;6.90;3.93;;;1.30;75.40;;;;;;5065138;28;20245;-73
2021/01/25 01:48:25;;;;;;;6.07;3.57;;;1.30;75.80;;;;;;5067258;28;20190;-74
2021/01/25 01:50:52;;;;;;;5.90;4.10;;;1.30;75.90;;;;;;5065604;28;20704;-73
2021/01/25 01:53:18;;;;;;;10.27;4.28;;;1.30;75.90;;;;;;5046956;28;20430;-73
2021/01/25 01:55:44;;;;;;;4.45;2.95;;;1.30;76.10;;;;;;5064543;28;20371;-73
2021/01/25 01:58:11;;;;;;;6.20;3.67;;;1.40;76.10;;;;;;5056710;28;20655;-72
2021/01/25 02:00:37;;;;;;;9.02;4.05;;;1.40;76.20;;;;;;5052419;28;20184;-71
2021/01/25 02:03:03;;;;;;;9.63;4.30;;;1.40;76.10;;;;;;5033892;28;20191;-72
2021/01/25 02:05:29;;;;;;;7.65;4.00;;;1.40;76.10;;;;;;5051042;28;20972;-71
2021/01/25 02:07:57;;;;;;;5.10;3.47;;;1.40;76.40;;;;;;5052551;28;20196;-71
2021/01/25 02:10:24;;;;;;;7.55;4.38;;;1.40;76.40;;;;;;5036027;28;20930;-72
2021/01/25 02:12:55;;;;;;;8.23;4.60;;;1.40;76.70;;;;;;5054210;28;20227;-71
2021/01/25 02:15:23;;;;;;;8.63;4.30;;;1.30;76.80;;;;;;5035361;28;20237;-72
2021/01/25 02:17:52;;;;;;;8.00;5.05;;;1.30;77.60;;;;;;5041663;28;20200;-72
2021/01/25 02:20:30;;;;;;;8.27;4.90;;;1.30;77.80;;;;;;5055111;28;20172;-70
2021/01/25 02:23:07;;;;;;;10.18;4.95;;;1.20;78.10;;;;;;5035924;28;20227;-71
2021/01/25 02:25:45;;;;;;;10.55;4.70;;;1.20;78.40;;;;;;5050321;28;20283;-72
2021/01/25 02:28:11;;;;;;;9.00;5.63;;;1.20;78.60;;;;;;5033594;28;20682;-73
2021/01/25 02:30:38;;;;;;;8.17;5.10;;;1.20;78.60;;;;;;5033285;28;20282;-73
2021/01/25 02:33:05;;;;;;;7.70;5.15;;;1.20;78.90;;;;;;5032935;28;20184;-71
2021/01/25 02:35:32;;;;;;;7.80;4.97;;;1.20;79.20;;;;;;5049978;28;20177;-71
2021/01/25 02:37:58;;;;;;;9.73;5.60;;;1.20;79.50;;;;;;5050917;28;20268;-71
2021/01/25 02:40:25;;;;;;;9.25;4.78;;;1.30;79.60;;;;;;5032999;28;20180;-71
2021/01/25 02:42:54;;;;;;;9.43;5.75;;;1.30;79.50;;;;;;5050699;28;20173;-72
2021/01/25 02:45:21;;;;;;;8.00;4.68;;;1.30;79.70;;;;;;5041840;28;20185;-71
2021/01/25 02:47:48;;;;;;;7.47;5.40;;;1.30;79.60;;;;;;5051472;28;20204;-73
2021/01/25 02:50:14;;;;;;;10.88;5.72;;;1.30;79.90;;;;;;5050605;28;20579;-70
2021/01/25 02:52:40;;;;;;;7.80;5.20;;;1.40;79.90;;;;;;5050901;28;20181;-71
2021/01/25 02:55:06;;;;;;;9.47;5.90;;;1.30;79.70;;;;;;5049923;28;20176;-72
2021/01/25 02:57:34;;;;;;;12.30;5.03;;;1.30;79.90;;;;;;5050626;28;20703;-70
2021/01/25 03:00:00;;;;;;;9.43;5.50;;;1.30;80.50;;;;;;5050516;28;20188;-70
2021/01/25 03:02:26;;;;;;;8.38;4.80;;;1.20;80.50;;;;;;5050328;28;20180;-70
2021/01/25 03:04:52;;;;;;;10.27;5.13;;;1.20;80.50;;;;;;5052922;28;20192;-71
2021/01/25 03:07:18;;;;;;;9.32;5.25;;;1.30;80.30;;;;;;5050789;28;20466;-70
2021/01/25 03:09:44;;;;;;;10.98;5.60;;;1.30;80.90;;;;;;5049380;28;20185;-72
2021/01/25 03:12:10;;;;;;;6.60;4.97;;;1.40;81.10;;;;;;5050153;28;20299;-70
2021/01/25 03:14:43;;;;;;;10.83;5.30;;;1.40;81.20;;;;;;5037271;28;20176;-71
2021/01/25 03:17:09;;;;;;;13.40;6.65;;;1.30;82.20;;;;;;5053297;28;20463;-69
2021/01/25 03:19:35;;;;;;;11.53;5.40;;;1.30;83.00;;;;;;5033887;28;20285;-71
2021/01/25 03:22:00;;;;;;;10.97;5.33;;;1.30;84.40;;;;;;5036104;28;20195;-72
2021/01/25 03:24:26;;;;;;;9.80;5.60;;;1.20;85.60;;;;;;5049145;28;20188;-73
2021/01/25 03:26:52;;;;;;;9.07;5.77;;;1.10;87.00;;;;;;5049995;28;20223;-72
2021/01/25 03:29:17;;;;;;;7.27;5.30;;;1.10;88.10;;;;;;5050111;28;20202;-73
2021/01/25 03:31:43;;;;;;;10.37;5.67;;;1.00;89.70;;;;;;5049745;28;20179;-73
2021/01/25 03:34:09;;;;;;;11.07;6.30;;;0.90;90.60;;;;;;5049247;28;20180;-72
2021/01/25 03:36:36;;;;;;;17.97;6.40;;;0.90;91.50;;;;;;5049703;28;20226;-72
2021/01/25 03:39:02;;;;;;;9.75;6.00;;;0.80;92.20;;;;;;5049884;28;20666;-70
2021/01/25 03:41:28;;;;;;;15.88;6.38;;;0.80;92.90;;;;;;5049827;28;20184;-72
2021/01/25 03:43:54;;;;;;;8.90;5.63;;;0.70;93.50;;;;;;5049062;28;20185;-72
2021/01/25 03:46:20;;;;;;;14.13;6.90;;;0.70;94.10;;;;;;5048782;28;20223;-70
2021/01/25 03:48:46;;;;;;;8.75;6.20;;;0.90;94.70;;;;;;5049800;28;20411;-71
2021/01/25 03:51:12;;;;;;;11.93;6.80;;;0.90;94.90;;;;;;5032828;28;20238;-70
2021/01/25 03:53:37;;;;;;;10.97;5.93;;;0.90;95.30;;;;;;5051628;28;20177;-73
2021/01/25 03:56:04;;;;;;;12.17;6.23;;;0.90;95.50;;;;;;5034225;28;20450;-72
2021/01/25 03:58:29;;;;;;;10.52;6.22;;;0.90;95.80;;;;;;5052618;28;20192;-72
2021/01/25 04:00:55;;;;;;;11.30;5.90;;;0.90;96.10;;;;;;5052459;28;20191;-72
2021/01/25 04:03:21;;;;;;;10.67;5.93;;;0.90;96.40;;;;;;5032580;28;20196;-70
2021/01/25 04:05:47;;;;;;;14.00;6.17;;;0.90;96.70;;;;;;5048994;28;20287;-74
2021/01/25 04:08:13;;;;;;;12.87;6.30;;;0.90;96.80;;;;;;5032371;28;20189;-71
2021/01/25 04:10:40;;;;;;;11.32;6.30;;;0.90;96.80;;;;;;5051579;28;20411;-72
2021/01/25 04:13:05;;;;;;;13.55;6.40;;;0.80;96.90;;;;;;5051308;28;20181;-72
2021/01/25 04:15:31;;;;;;;12.17;5.33;;;0.90;97.20;;;;;;5051659;28;20821;-71
2021/01/25 04:17:57;;;;;;;11.17;6.07;;;0.90;97.30;;;;;;5051711;28;20220;-72
2021/01/25 04:20:23;;;;;;;10.63;5.70;;;1.00;97.50;;;;;;5050976;28;20212;-71
2021/01/25 04:22:49;;;;;;;8.50;5.27;;;1.00;97.50;;;;;;5049248;28;20701;-72
2021/01/25 04:25:14;;;;;;;12.07;5.50;;;1.00;97.50;;;;;;5045801;28;20173;-73
2021/01/25 04:27:40;;;;;;;11.13;5.70;;;1.10;97.50;;;;;;5049282;28;20265;-71
2021/01/25 04:30:09;;;;;;;11.00;6.07;;;1.10;97.40;;;;;;5049430;28;20595;-73
2021/01/25 04:32:35;;;;;;;11.35;5.55;;;1.10;97.20;;;;;;5048996;28;20176;-73
2021/01/25 04:35:12;;;;;;;11.85;5.82;;;1.10;97.10;;;;;;5030251;28;20237;-72
2021/01/25 04:37:39;;;;;;;13.50;5.22;;;1.10;97.00;;;;;;5030744;28;20274;-72
2021/01/25 04:40:10;;;;;;;10.85;5.55;;;1.00;96.90;;;;;;5031408;28;20659;-73
2021/01/25 04:42:37;;;;;;;11.90;6.00;;;1.00;96.80;;;;;;5031387;28;20663;-71
2021/01/25 04:45:10;;;;;;;10.30;6.43;;;1.00;96.90;;;;;;5022089;28;20278;-70
2021/01/25 04:47:37;;;;;;;13.90;5.90;;;0.90;97.10;;;;;;5031221;28;20719;-72
2021/01/25 04:50:04;;;;;;;9.20;5.75;;;1.00;97.30;;;;;;5031330;28;20192;-71
2021/01/25 04:52:30;;;;;;;9.65;5.68;;;1.00;97.50;;;;;;5048963;28;20192;-71
2021/01/25 04:54:57;;;;;;;9.88;5.80;;;1.00;97.50;;;;;;5047913;28;20271;-71
2021/01/25 04:57:23;;;;;;;9.40;5.70;;;1.10;97.60;;;;;;5048592;28;20200;-71
2021/01/25 04:59:51;;;;;;;10.70;6.28;;;1.20;97.20;;;;;;5048637;28;20192;-72
2021/01/25 05:02:17;;;;;;;10.75;5.68;;;1.20;97.00;;;;;;5031102;28;20190;-72
2021/01/25 05:04:43;;;;;;;14.27;6.30;;;1.20;96.90;;;;;;5030373;28;20193;-71
2021/01/25 05:07:09;;;;;;;11.87;5.87;;;1.20;96.70;;;;;;5049229;28;20216;-72
2021/01/25 05:09:35;;;;;;;9.40;5.47;;;1.20;96.60;;;;;;5049388;28;20539;-73
2021/01/25 05:12:03;;;;;;;10.73;5.70;;;1.20;96.50;;;;;;5049627;28;20180;-73
2021/01/25 05:14:43;;;;;;;9.25;5.40;;;1.20;96.60;;;;;;5030910;28;20419;-74
2021/01/25 05:17:13;;;;;;;12.65;6.38;;;1.20;96.60;;;;;;5033246;28;20733;-70
2021/01/25 05:19:43;;;;;;;9.00;5.47;;;1.20;96.50;;;;;;5036691;28;20188;-73
2021/01/25 05:22:15;;;;;;;10.32;5.97;;;1.10;96.30;;;;;;5049167;28;20181;-71
2021/01/25 05:24:59;;;;;;;11.82;6.22;;;1.10;96.50;;;;;;5050538;28;20173;-70
2021/01/25 05:27:28;;;;;;;14.02;6.43;;;1.10;96.80;;;;;;5033026;28;20223;-71
2021/01/25 05:30:14;;;;;;;11.15;5.60;;;1.10;97.00;;;;;;5053173;28;20205;-71
2021/01/25 05:32:59;;;;;;;11.73;6.38;;;1.10;97.10;;;;;;5050695;28;20190;-71
2021/01/25 05:35:30;;;;;;;13.07;7.43;;;1.10;97.30;;;;;;5042712;28;20184;-71
2021/01/25 05:38:04;;;;;;;11.07;5.72;;;1.20;97.40;;;;;;5054892;28;20573;-71
2021/01/25 05:40:32;;;;;;;13.60;6.80;;;1.20;97.40;;;;;;5058648;28;20202;-72
2021/01/25 05:42:58;;;;;;;11.30;6.25;;;1.30;97.40;;;;;;5040555;28;20257;-71
2021/01/25 05:45:28;;;;;;;12.10;6.40;;;1.30;97.30;;;;;;5057722;28;20192;-71
2021/01/25 05:47:58;;;;;;;12.43;6.70;;;1.30;97.20;;;;;;5053574;28;20707;-71
2021/01/25 05:50:31;;;;;;;17.58;6.85;;;1.30;97.00;;;;;;5040109;28;20200;-73
2021/01/25 05:53:00;;;;;;;11.60;6.30;;;1.30;96.80;;;;;;5052999;28;20215;-71
2021/01/25 05:55:26;;;;;;;15.38;6.80;;;1.30;96.70;;;;;;5054252;28;20177;-72
2021/01/25 05:57:53;;;;;;;13.93;6.90;;;1.20;96.60;;;;;;5055524;28;20211;-71
2021/01/25 06:00:19;;;;;;;12.20;7.18;;;1.20;96.50;;;;;;5054130;28;20184;-71
2021/01/25 06:02:47;;;;;;;11.25;6.40;;;1.20;96.70;;;;;;5033988;28;20535;-71
2021/01/25 06:05:21;;;;;;;10.13;6.07;;;1.20;96.80;;;;;;5052901;28;20189;-73
2021/01/25 06:07:50;;;;;;;14.57;7.28;;;1.20;96.90;;;;;;5053585;28;20274;-71
2021/01/25 06:10:21;;;;;;;13.60;7.30;;;1.30;96.90;;;;;;5053191;28;20179;-71
2021/01/25 06:12:56;;;;;;;13.20;7.30;;;1.30;96.80;;;;;;5052097;28;20187;-72
2021/01/25 06:15:26;;;;;;;15.80;6.93;;;1.20;96.90;;;;;;5051458;28;20180;-72
2021/01/25 06:17:56;;;;;;;13.77;8.13;;;1.30;97.00;;;;;;5039167;28;20790;-72
2021/01/25 06:20:22;;;;;;;13.80;7.90;;;1.30;96.90;;;;;;5033967;28;20714;-72
2021/01/25 06:22:48;;;;;;;13.25;8.27;;;1.30;97.00;;;;;;5051120;28;20185;-72
2021/01/25 06:25:15;;;;;;;18.67;9.00;;;1.30;97.00;;;;;;5050851;28;20196;-74
2021/01/25 06:27:42;;;;;;;19.38;9.20;;;1.40;97.00;;;;;;5051825;28;20896;-71
2021/01/25 06:30:11;;;;;;;14.48;9.05;;;1.40;97.00;;;;;;5051872;28;20272;-71
2021/01/25 06:32:46;;;;;;;17.88;9.70;;;1.40;97.10;;;;;;5051252;28;20185;-73
2021/01/25 06:35:13;;;;;;;21.08;10.50;;;1.30;97.10;;;;;;5051040;28;20183;-72
2021/01/25 06:37:39;;;;;;;18.30;9.98;;;1.30;97.20;;;;;;5051946;28;20682;-75
2021/01/25 06:40:10;;;;;;;17.67;9.70;;;1.30;97.50;;;;;;5053602;28;20176;-75
2021/01/25 06:42:42;;;;;;;17.00;8.50;;;1.30;97.70;;;;;;5049898;28;20185;-75
2021/01/25 06:45:08;;;;;;;13.95;8.85;;;1.30;97.80;;;;;;5035576;28;20623;-75
2021/01/25 06:47:36;;;;;;;17.25;8.30;;;1.30;97.80;;;;;;5054003;28;20208;-75
2021/01/25 06:50:03;;;;;;;17.35;8.25;;;1.30;97.90;;;;;;5054519;28;20172;-76
2021/01/25 06:52:36;;;;;;;16.58;8.32;;;1.30;97.70;;;;;;5054068;28;20521;-76
2021/01/25 06:55:04;;;;;;;15.25;8.85;;;1.30;97.40;;;;;;5034327;28;20432;-74
2021/01/25 06:57:33;;;;;;;15.88;8.23;;;1.20;97.20;;;;;;5044910;28;20273;-74
2021/01/25 07:00:06;;;;;;;19.30;8.88;;;1.20;97.30;;;;;;5050393;28;20181;-75
2021/01/25 07:02:31;;;;;;;14.80;8.70;;;1.30;97.70;;;;;;5053907;28;20278;-75
2021/01/25 07:04:57;;;;;;;15.30;9.50;;;1.30;97.80;;;;;;5055808;28;20695;-72
2021/01/25 07:07:29;;;;;;;15.60;8.45;;;1.30;97.90;;;;;;5035333;28;20225;-70
2021/01/25 07:09:59;;;;;;;19.90;9.13;;;1.30;98.10;;;;;;5038233;28;20210;-72
2021/01/25 07:12:26;;;;;;;17.73;10.07;;;1.30;98.10;;;;;;5036656;28;20195;-71
2021/01/25 07:14:53;;;;;;;16.88;8.90;;;1.40;98.10;;;;;;5050339;28;20217;-71
2021/01/25 07:17:20;;;;;;;16.60;8.30;;;1.50;98.10;;;;;;5050962;28;20212;-70
2021/01/25 07:19:47;;;;;;;16.55;8.13;;;1.50;97.90;;;;;;5050452;28;20260;-73
2021/01/25 07:22:13;;;;;;;13.38;7.82;;;1.50;97.60;;;;;;5050332;28;20558;-71
2021/01/25 07:24:39;;;;;;;15.15;7.50;;;1.50;97.40;;;;;;5050069;28;20592;-71
2021/01/25 07:27:06;;;;;;;17.33;7.70;;;1.40;97.20;;;;;;5050729;28;20594;-74
2021/01/25 07:29:32;;;;;;;19.77;8.75;;;1.40;97.10;;;;;;5050629;28;20211;-73
2021/01/25 07:31:59;;;;;;;17.80;9.45;;;1.40;97.00;;;;;;5035422;28;20675;-73
2021/01/25 07:34:26;;;;;;;16.30;8.63;;;1.40;97.00;;;;;;5048822;28;20504;-71
2021/01/25 07:36:52;;;;;;;16.52;8.50;;;1.50;97.10;;;;;;5040361;28;20212;-73
2021/01/25 07:39:19;;;;;;;15.40;8.37;;;1.50;97.20;;;;;;5051145;28;20329;-72
2021/01/25 07:41:46;;;;;;;14.63;7.95;;;1.60;97.10;;;;;;5051428;28;20427;-73
2021/01/25 07:44:13;;;;;;;18.52;9.18;;;1.70;97.00;;;;;;5031429;28;20190;-70
2021/01/25 07:46:41;;;;;;;14.73;8.57;;;1.80;96.80;;;;;;5044653;28;20227;-73
2021/01/25 07:49:07;;;;;;;21.13;7.65;;;1.80;96.60;;;;;;5052635;28;20176;-73
2021/01/25 07:51:34;;;;;;;13.43;7.30;;;1.80;96.30;;;;;;5033931;28;20191;-72
2021/01/25 07:54:01;;;;;;;16.50;7.93;;;1.90;96.10;;;;;;5047094;28;20251;-71
2021/01/25 07:56:28;;;;;;;17.02;7.70;;;1.80;95.90;;;;;;5049312;28;20209;-73
2021/01/25 07:59:09;;;;;;;16.42;8.32;;;1.70;95.90;;;;;;5049078;28;20177;-72
2021/01/25 08:01:46;;;;;;;17.02;8.10;;;1.70;96.10;;;;;;5049823;28;20180;-73
2021/01/25 08:04:13;;;;;;;14.10;7.15;;;1.70;96.40;;;;;;5049337;28;20188;-71
2021/01/25 08:06:41;;;;;;;13.95;8.60;;;1.70;96.60;;;;;;5048452;28;20710;-73
2021/01/25 08:09:11;;;;;;;17.98;7.85;;;1.70;96.50;;;;;;5049580;28;20180;-74
2021/01/25 08:11:39;;;;;;;17.83;8.57;;;1.70;96.40;;;;;;5031648;28;20196;-72
2021/01/25 08:14:27;;;;;;;19.48;8.00;;;1.70;96.60;;;;;;5031349;28;20183;-72
2021/01/25 08:17:05;;;;;;;13.27;8.85;;;1.70;96.90;;;;;;5049631;28;20212;-73
2021/01/25 08:19:46;;;;;;;18.88;8.48;;;1.70;96.90;;;;;;5037064;28;20312;-71
2021/01/25 08:22:22;;;;;;;17.10;8.77;;;1.60;96.80;;;;;;5049286;28;20195;-71
2021/01/25 08:24:56;;;;;;;17.83;9.25;;;1.60;97.00;;;;;;5048799;28;20274;-72
2021/01/25 08:27:22;;;;;;;18.77;8.55;;;1.50;97.20;;;;;;5049199;28;20212;-71
2021/01/25 08:29:58;;;;;;;21.73;10.50;;;1.50;97.40;;;;;;5049463;28;20188;-72
2021/01/25 08:32:31;;;;;;;20.45;9.50;;;1.30;97.80;;;;;;5049050;28;20226;-71
2021/01/25 08:35:03;;;;;;;26.15;9.07;;;1.30;98.00;;;;;;5048771;28;20267;-72
2021/01/25 08:37:32;;;;;;;16.58;8.45;;;1.30;98.30;;;;;;5048872;28;20200;-71
2021/01/25 08:40:09;;;;;;;18.13;9.95;;;1.30;98.50;;;;;;5049318;28;20192;-73
2021/01/25 08:42:35;;;;;;;17.52;9.98;;;1.40;98.80;;;;;;5030549;28;20192;-72
2021/01/25 08:45:08;;;;;;;19.60;9.50;;;1.50;99.00;;;;;;5047958;28;20196;-74
2021/01/25 08:47:34;;;;;;;16.60;9.23;;;1.70;99.00;;;;;;5048965;28;20220;-73
2021/01/25 08:50:01;;;;;;;18.25;9.00;;;1.80;99.00;;;;;;5048679;28;20176;-72
2021/01/25 08:52:39;;;;;;;18.98;9.13;;;1.90;99.00;;;;;;5048659;28;20566;-72
2021/01/25 08:55:24;;;;;;;18.08;8.65;;;2.00;98.90;;;;;;5048251;28;20643;-71
2021/01/25 08:57:50;;;;;;;12.07;6.28;;;2.00;98.60;;;;;;5030981;28;20212;-71
2021/01/25 09:00:19;;;;;;;15.30;7.90;;;2.10;98.10;;;;;;5049318;28;20267;-74
2021/01/25 09:02:46;;;;;;;12.98;7.32;;;2.00;97.40;;;;;;5048259;28;20208;-72
2021/01/25 09:05:14;;;;;;;17.02;8.70;;;1.90;96.80;;;;;;5030489;28;20184;-73
2021/01/25 09:07:40;;;;;;;15.32;7.72;;;1.90;96.90;;;;;;5050019;28;20231;-71
2021/01/25 09:10:08;;;;;;;18.42;8.80;;;2.00;97.10;;;;;;5053298;28;20301;-70
2021/01/25 09:12:33;;;;;;;14.13;8.18;;;2.10;97.10;;;;;;5053079;28;20286;-71
2021/01/25 09:14:59;;;;;;;21.10;9.13;;;2.20;97.00;;;;;;5052265;28;20215;-73
2021/01/25 09:17:25;;;;;;;15.33;8.30;;;2.20;96.80;;;;;;5035263;28;20996;-73
2021/01/25 09:19:51;;;;;;;14.47;7.87;;;2.20;96.70;;;;;;5053338;28;20195;-73
2021/01/25 09:22:18;;;;;;;22.65;8.20;;;2.20;96.80;;;;;;5034762;28;20663;-72
2021/01/25 09:24:44;;;;;;;15.20;8.60;;;2.20;96.80;;;;;;5052750;28;20203;-72
2021/01/25 09:27:11;;;;;;;14.80;9.20;;;2.40;97.00;;;;;;5058839;28;20250;-72
2021/01/25 09:29:37;;;;;;;16.88;8.40;;;2.50;97.10;;;;;;5062388;28;20184;-72
2021/01/25 09:32:04;;;;;;;15.30;8.37;;;2.60;96.90;;;;;;5040666;28;20235;-72
2021/01/25 09:34:29;;;;;;;14.35;8.30;;;2.60;96.40;;;;;;5060058;28;20427;-72
2021/01/25 09:36:55;;;;;;;13.83;8.33;;;2.60;96.20;;;;;;5056420;28;20273;-73
2021/01/25 09:39:21;;;;;;;11.97;7.30;;;2.60;96.10;;;;;;5053059;28;20192;-72
2021/01/25 09:41:47;;;;;;;17.13;7.90;;;2.70;96.20;;;;;;5052606;28;20204;-70
2021/01/25 09:44:15;;;;;;;12.50;7.35;;;2.80;96.20;;;;;;5053265;28;20427;-71
2021/01/25 09:46:42;;;;;;;13.93;9.20;;;2.80;95.80;;;;;;5056206;28;20220;-70
2021/01/25 09:49:08;;;;;;;13.20;7.80;;;2.80;95.40;;;;;;5054071;28;20421;-71
2021/01/25 09:51:34;;;;;;;19.75;7.75;;;2.90;95.10;;;;;;5052664;28;20525;-72
2021/01/25 09:54:00;;;;;;;16.70;7.50;;;3.00;95.00;;;;;;5052474;28;20294;-72
2021/01/25 09:56:26;;;;;;;14.50;6.77;;;2.90;94.60;;;;;;5053113;28;20446;-70
2021/01/25 09:58:52;;;;;;;16.33;7.27;;;2.80;94.40;;;;;;5054578;28;20414;-71
2021/01/25 10:01:18;;;;;;;12.67;7.40;;;2.80;94.40;;;;;;5056402;28;20191;-72
2021/01/25 10:03:43;;;;;;;15.27;7.93;;;2.80;94.40;;;;;;5059141;28;20419;-72
2021/01/25 10:06:10;;;;;;;18.70;6.90;;;2.90;94.20;;;;;;5055131;28;20489;-71
2021/01/25 10:08:39;;;;;;;15.18;7.30;;;2.90;94.30;;;;;;5034379;28;20430;-69
2021/01/25 10:11:06;;;;;;;13.90;8.17;;;2.90;94.30;;;;;;5051932;28;20267;-73
2021/01/25 10:13:32;;;;;;;13.50;7.82;;;2.90;94.50;;;;;;5033710;28;20427;-73
2021/01/25 10:15:58;;;;;;;10.43;7.20;;;2.90;94.30;;;;;;5051409;28;20219;-73
2021/01/25 10:18:24;;;;;;;13.60;7.33;;;3.00;94.30;;;;;;5054018;28;20188;-73
2021/01/25 10:20:49;;;;;;;11.53;7.20;;;3.00;94.10;;;;;;5052174;28;20185;-72
2021/01/25 10:23:15;;;;;;;12.90;7.10;;;3.10;94.10;;;;;;5033274;28;20779;-71
2021/01/25 10:25:41;;;;;;;11.10;7.47;;;3.20;94.20;;;;;;5032940;28;20652;-72
2021/01/25 10:28:07;;;;;;;10.27;6.57;;;3.30;94.00;;;;;;5051958;28;20558;-74
2021/01/25 10:30:32;;;;;;;12.60;6.40;;;3.40;93.80;;;;;;5051694;28;20199;-71
2021/01/25 10:32:59;;;;;;;15.97;8.10;;;3.50;93.60;;;;;;5050687;28;20196;-72
2021/01/25 10:35:26;;;;;;;13.73;7.85;;;3.60;93.10;;;;;;5050526;28;20211;-74
2021/01/25 10:37:51;;;;;;;24.10;8.20;;;3.70;93.00;;;;;;5050992;28;20212;-72
2021/01/25 10:40:18;;;;;;;14.93;7.70;;;3.80;92.90;;;;;;5051108;28;20910;-71
2021/01/25 10:42:44;;;;;;;12.23;7.15;;;3.90;92.70;;;;;;5050512;28;20196;-73
2021/01/25 10:45:11;;;;;;;12.20;7.13;;;3.90;91.70;;;;;;5042405;28;20256;-72
2021/01/25 10:47:37;;;;;;;10.00;5.67;;;3.50;91.60;;;;;;5052186;28;20485;-73
2021/01/25 10:50:05;;;;;;;10.82;6.25;;;3.20;92.20;;;;;;5052808;28;20538;-72
2021/01/25 10:52:33;;;;;;;11.93;6.10;;;2.80;93.20;;;;;;5053613;28;20647;-71
2021/01/25 10:54:58;;;;;;;11.70;5.10;;;2.50;94.40;;;;;;5035957;28;20656;-72
2021/01/25 10:57:24;;;;;;;8.90;4.63;;;2.40;95.30;;;;;;5052803;28;20215;-71
2021/01/25 10:59:50;;;;;;;8.30;4.93;;;2.40;96.10;;;;;;5052047;28;20192;-73
2021/01/25 11:02:18;;;;;;;12.27;5.23;;;2.50;96.40;;;;;;5050559;28;20587;-71
2021/01/25 11:04:45;;;;;;;11.07;5.72;;;2.60;96.60;;;;;;5052351;28;20184;-70
2021/01/25 11:07:11;;;;;;;8.15;5.70;;;2.70;96.50;;;;;;5053429;28;20454;-72
2021/01/25 11:09:37;;;;;;;9.45;5.05;;;2.80;96.40;;;;;;5052478;28;20227;-71
2021/01/25 11:12:04;;;;;;;8.60;5.07;;;3.00;96.00;;;;;;5051126;28;21015;-72
2021/01/25 11:14:29;;;;;;;8.43;5.25;;;3.10;95.80;;;;;;5049814;28;20196;-73
2021/01/25 11:16:55;;;;;;;10.73;5.50;;;3.40;95.10;;;;;;5050386;28;20857;-74
2021/01/25 11:19:21;;;;;;;8.00;5.20;;;3.50;94.60;;;;;;5050428;28;20188;-71
2021/01/25 11:21:46;;;;;;;8.80;4.80;;;3.60;94.20;;;;;;5050279;28;20731;-72
2021/01/25 11:24:12;;;;;;;9.40;4.93;;;3.80;94.00;;;;;;5049628;28;20263;-72
2021/01/25 11:26:40;;;;;;;9.00;5.37;;;3.90;93.60;;;;;;5032433;28;20216;-73
2021/01/25 11:29:08;;;;;;;7.43;4.13;;;3.90;92.90;;;;;;5050073;28;20181;-71
2021/01/25 11:31:34;;;;;;;6.23;4.40;;;3.90;92.40;;;;;;5049219;28;20423;-70
2021/01/25 11:34:00;;;;;;;8.00;4.73;;;4.00;91.80;;;;;;5031781;28;20573;-70
2021/01/25 11:36:26;;;;;;;6.57;3.80;;;4.00;91.40;;;;;;5049356;28;20459;-71
2021/01/25 11:38:51;;;;;;;7.55;4.35;;;4.00;91.00;;;;;;5050185;28;20648;-71
2021/01/25 11:41:18;;;;;;;7.07;4.13;;;4.00;91.20;;;;;;5049981;28;20200;-71
2021/01/25 11:43:44;;;;;;;3.77;3.20;;;4.20;91.20;;;;;;5049852;28;20652;-73
2021/01/25 11:46:10;;;;;;;7.10;4.00;;;4.10;90.10;;;;;;5041869;28;20505;-71
2021/01/25 11:48:36;;;;;;;8.20;4.37;;;4.20;90.40;;;;;;5050063;28;20683;-70
2021/01/25 11:51:01;;;;;;;5.40;4.60;;;4.20;90.40;;;;;;5050174;28;20644;-70
2021/01/25 11:53:27;;;;;;;7.27;4.30;;;4.30;90.80;;;;;;5049450;28;20993;-72
2021/01/25 11:55:53;;;;;;;11.47;4.70;;;4.20;90.30;;;;;;5049376;28;20422;-70
2021/01/25 11:58:19;;;;;;;9.20;4.40;;;4.10;90.50;;;;;;5050140;28;20181;-73
2021/01/25 12:00:45;;;;;;;5.30;2.97;;;4.00;90.60;;;;;;5054289;28;20209;-72
2021/01/25 12:03:10;;;;;;;5.87;3.80;;;3.80;91.10;;;;;;5052846;28;20575;-70
2021/01/25 12:05:36;;;;;;;6.90;3.90;;;3.80;91.70;;;;;;5050063;28;20180;-72
2021/01/25 12:08:02;;;;;;;5.10;3.53;;;3.70;92.20;;;;;;5050294;28;20203;-72
2021/01/25 12:10:29;;;;;;;6.25;4.45;;;3.80;92.40;;;;;;5050984;28;20192;-70
2021/01/25 12:12:55;;;;;;;7.90;3.60;;;4.00;92.50;;;;;;5053909;28;20184;-72
2021/01/25 12:15:21;;;;;;;4.70;3.43;;;4.10;92.20;;;;;;5032608;28;20431;-70
2021/01/25 12:17:47;;;;;;;4.93;3.38;;;4.10;91.80;;;;;;5053847;28;20481;-71
2021/01/25 12:20:14;;;;;;;5.23;3.73;;;4.10;91.60;;;;;;5051172;28;20180;-71
2021/01/25 12:22:39;;;;;;;6.07;3.53;;;4.10;91.50;;;;;;5048844;28;20426;-72
2021/01/25 12:25:06;;;;;;;6.30;3.30;;;4.10;92.00;;;;;;5031507;28;20180;-71
2021/01/25 12:27:32;;;;;;;5.40;3.70;;;4.30;91.70;;;;;;5049333;28;20216;-72
2021/01/25 12:29:57;;;;;;;2.97;2.00;;;4.30;91.70;;;;;;5031145;28;20580;-73
2021/01/25 12:32:23;;;;;;;6.33;3.57;;;4.20;91.30;;;;;;5048874;28;20246;-72
2021/01/25 12:34:50;;;;;;;4.77;3.10;;;4.10;91.10;;;;;;5048931;28;20189;-70
2021/01/25 12:37:17;;;;;;;4.17;3.17;;;4.10;91.60;;;;;;5049769;28;20438;-73
2021/01/25 12:39:43;;;;;;;3.53;2.73;;;4.10;91.80;;;;;;5049749;28;20456;-72
2021/01/25 12:42:09;;;;;;;3.97;2.83;;;4.10;92.00;;;;;;5048770;28;20429;-73
2021/01/25 12:44:35;;;;;;;2.60;1.40;;;4.10;92.10;;;;;;5048892;28;20917;-72
2021/01/25 12:47:02;;;;;;;4.77;2.80;;;4.10;92.30;;;;;;5032483;28;20551;-71
2021/01/25 12:49:28;;;;;;;3.43;2.17;;;4.30;92.20;;;;;;5031970;28;20435;-72
2021/01/25 12:51:54;;;;;;;6.30;3.30;;;4.40;91.80;;;;;;5052248;28;20415;-72